Terminal Aerodrome Forecast
Issued by NWS Albany, NY

Home | Current Version | Previous Version | Text Only | Print | Product List | Glossary On
Versions: 1 2 3 4 5 6 7 8 9 10 11 12 13 14 15 16 17 18 19 20 21 22
000
FTUS41 KALY 140800 AAA
TAFPOU
TAF AMD
KPOU 140806Z 1408/1506 18004KT P6SM VCSH SCT050 BKN110
     FM141200 19004KT P6SM BKN025 OVC050
     FM141700 21005KT P6SM VCSH BKN050 PROB30 1418/1424 3SM TSRA
      OVC020CB
     FM150300 16005KT P6SM -SHRA BKN040=

USA.gov is the U.S. government's official web portal to all federal, state and local government web resources and services.